NFSM7: N Fork Spring River nr Purcell, MO

                                SHEF ID:       NFSM7     N Fork Spring River nr Purcell, MO
STATION TYPE:

STAGE RIV-FLOW
ft cfs
Ccp-Rev Ccp-Rev
(America/Chicago)
05/01 00:00 5.09 549
05/01 01:00 5.04 531
05/01 02:00 5.00 517
05/01 03:00 4.96 503
05/01 04:00 4.92 490
05/01 05:00 4.87 473
05/01 06:00 4.85 466
05/01 07:00 4.81 453
05/01 08:00 4.78 444
05/01 09:00 4.75 434
05/01 10:00 4.72 424
05/01 11:00 4.69 415
05/01 12:00 4.67 409
05/01 13:00 4.63 397
05/01 14:00 4.61 391
05/01 15:00 4.60 388
05/01 16:00 4.60 388
05/01 17:00 4.57 379
05/01 18:00 4.54 370
05/01 19:00 4.51 361
05/01 20:00 4.53 367
05/01 21:00 4.48 352
05/01 22:00 4.46 347
05/01 23:00 4.44 ----
Data processed at Sat 02May2026 04:45 GMT

NOTICE: If you are parsing this page

Please convert to using our Data API. Starting early 2026 we will be migrating to: https://water.usace.army.mil with modern pages rendered in JavaScript. When this migration completes you will no longer be able to scrape this page! CWMSDataAPI (CDA)

Timeseries IDs (TSIDs)

TSIDs used from left to right in the data table
PURS.Stage.Inst.1Hour.0.Ccp-Rev
PURS.Flow.Inst.1Hour.0.Ccp-Rev

                            

All information presented herein is the property of the government of the United States of America and may be revised or deleted at any time without prior notice. Dissemination of this information without the expressed written consent of the Public Affairs Office, Tulsa District U.S. Army Corps of Engineers is strictly prohibited. These data are gathered electronically and, as presented, have NOT undergone any form of quality control. These data are NOT guaranteed to be valid or correct.